createdAt,value
2022-08-10T04:00:51.284Z,102304.00
2022-08-10T04:05:53.805Z,102305.81
2022-08-10T04:10:56.383Z,102307.50
2022-08-10T04:15:58.614Z,102298.97
2022-08-10T04:21:08.717Z,102302.44
2022-08-10T04:26:12.613Z,102311.28
2022-08-10T04:31:17.654Z,102313.41
2022-08-10T04:36:22.079Z,102320.81
2022-08-10T04:41:25.381Z,102324.03
2022-08-10T04:46:42.675Z,102316.84
2022-08-10T04:51:50.073Z,102319.72
2022-08-10T04:56:52.371Z,102315.59
2022-08-10T05:02:30.043Z,102319.81
2022-08-10T05:07:18.459Z,102324.88
2022-08-10T05:12:21.155Z,102326.38
2022-08-10T05:17:23.708Z,102318.84
2022-08-10T05:22:26.013Z,102326.44
2022-08-10T05:27:28.592Z,102332.66
2022-08-10T05:32:55.312Z,102331.50
2022-08-10T05:38:08.898Z,102341.28
2022-08-10T05:43:21.170Z,102339.81
2022-08-10T05:48:54.415Z,102338.34
2022-08-10T05:54:03.407Z,102344.53
2022-08-10T05:59:07.730Z,102345.81
2022-08-10T06:04:13.538Z,102341.94
2022-08-10T06:09:17.405Z,102337.72
2022-08-10T06:14:39.401Z,102333.03
2022-08-10T06:19:50.955Z,102339.66
2022-08-10T06:25:23.138Z,102335.84
2022-08-10T06:30:20.558Z,102338.03
2022-08-10T06:35:27.880Z,102334.13
2022-08-10T06:40:36.651Z,102335.84
2022-08-10T06:45:47.466Z,102324.88
2022-08-10T06:51:18.135Z,102328.03
2022-08-10T06:56:35.801Z,102328.97
2022-08-10T07:01:43.591Z,102313.84
2022-08-10T07:06:56.975Z,102318.28
2022-08-10T07:12:07.959Z,102320.41
2022-08-10T07:17:15.963Z,102319.50
2022-08-10T07:23:22.823Z,102302.59
2022-08-10T07:27:59.785Z,102312.06
2022-08-10T07:33:05.421Z,102320.31
2022-08-10T07:38:10.609Z,102315.63
2022-08-10T07:43:14.226Z,102327.47
2022-08-10T07:48:21.732Z,102326.63
2022-08-10T07:53:27.256Z,102321.19
2022-08-10T07:58:35.869Z,102328.63
2022-08-10T08:03:40.423Z,102322.31
2022-08-10T08:08:44.287Z,102316.50
2022-08-10T08:13:48.185Z,102322.34
2022-08-10T08:19:23.900Z,102339.56
2022-08-10T08:24:32.935Z,102372.13
2022-08-10T08:29:39.252Z,102388.06
2022-08-10T08:34:44.072Z,102372.13
2022-08-10T08:39:47.267Z,102346.72
2022-08-10T08:45:17.169Z,102289.03
2022-08-10T08:50:57.964Z,102281.84
2022-08-10T08:56:10.009Z,102281.88
2022-08-10T09:01:40.463Z,102264.78
2022-08-10T09:06:46.370Z,102272.00
2022-08-10T09:12:10.448Z,102267.41
2022-08-10T09:17:38.555Z,102262.88
2022-08-10T09:22:57.221Z,102252.81
2022-08-10T09:28:09.496Z,102248.56
2022-08-10T09:36:26.173Z,102251.91
2022-08-10T09:40:55.857Z,102242.78
2022-08-10T09:44:57.654Z,102243.84
2022-08-10T09:50:04.476Z,102241.88
2022-08-10T09:55:20.678Z,102245.63
2022-08-10T10:00:30.624Z,102244.41
2022-08-10T10:06:03.517Z,102240.78
2022-08-10T10:11:21.106Z,102234.34
2022-08-10T10:16:32.915Z,102234.88
2022-08-10T10:22:07.658Z,102232.91
2022-08-10T10:27:50.103Z,102217.13
2022-08-10T10:33:01.139Z,102225.22
2022-08-10T10:38:07.738Z,102209.53
2022-08-10T10:43:16.355Z,102209.41
2022-08-10T10:48:41.564Z,102203.78
2022-08-10T10:54:02.509Z,102202.88
2022-08-10T10:59:55.181Z,102188.44
2022-08-10T11:05:04.909Z,102187.88
2022-08-10T11:10:34.209Z,102183.66
2022-08-10T11:15:47.598Z,102184.63
2022-08-10T11:21:04.240Z,102183.03
2022-08-10T11:26:24.400Z,102178.78
2022-08-10T11:31:43.248Z,102170.28
2022-08-10T11:37:16.354Z,102177.72
2022-08-10T11:42:36.325Z,102169.84
2022-08-10T11:47:54.180Z,102151.78
2022-08-10T11:53:14.999Z,102147.66
2022-08-10T11:58:36.521Z,102151.56
2022-08-10T12:03:41.523Z,102146.91
2022-08-10T12:10:11.122Z,102144.97
2022-08-10T12:14:24.266Z,102149.53
2022-08-10T12:19:59.920Z,102144.00
2022-08-10T12:31:25.020Z,102134.78
2022-08-10T12:36:50.774Z,102133.63
2022-08-10T12:43:13.568Z,102115.69
2022-08-10T13:52:32.063Z,102053.56
2022-08-10T13:57:35.830Z,102033.59
2022-08-10T14:02:59.931Z,102037.56
2022-08-10T14:08:05.545Z,102031.50
2022-08-10T14:13:10.171Z,102033.69
2022-08-10T14:18:13.875Z,102030.25
2022-08-10T14:23:16.524Z,102020.00
2022-08-10T14:28:21.946Z,102021.34
2022-08-10T14:33:25.218Z,102012.09
2022-08-10T14:38:31.803Z,102009.78
2022-08-10T14:43:41.735Z,102007.16
2022-08-10T14:48:47.304Z,102002.97
2022-08-10T14:53:55.759Z,102005.56
2022-08-10T14:59:07.001Z,102001.75
2022-08-10T15:04:13.112Z,102000.84
2022-08-10T15:09:20.207Z,101988.28
2022-08-10T15:14:41.471Z,101991.63
2022-08-10T15:20:03.696Z,101982.34
2022-08-10T15:25:25.246Z,101976.81
2022-08-10T15:30:31.407Z,101978.19
2022-08-10T15:35:54.634Z,101964.03
2022-08-10T15:40:58.899Z,101970.28
2022-08-10T15:46:09.713Z,101961.38
2022-08-10T15:51:33.853Z,101963.28
2022-08-10T15:56:56.699Z,101959.84
2022-08-10T16:02:16.113Z,101960.97
2022-08-10T16:07:42.909Z,101965.38
2022-08-10T16:12:59.910Z,101966.59
2022-08-10T16:18:12.505Z,101971.09
2022-08-10T16:23:19.043Z,101957.94
2022-08-10T16:28:29.298Z,101960.81
2022-08-10T16:33:53.644Z,101955.50
2022-08-10T16:38:58.895Z,101952.88
2022-08-10T16:44:02.380Z,101953.84
2022-08-10T16:49:05.746Z,101949.41
2022-08-10T16:54:10.528Z,101950.41
2022-08-10T16:59:17.761Z,101951.25
2022-08-10T17:04:24.936Z,101941.66
2022-08-10T17:09:30.251Z,101946.97
2022-08-10T17:14:32.830Z,101942.63
2022-08-10T17:19:39.605Z,101934.78
2022-08-10T17:24:47.840Z,101944.50
2022-08-10T17:30:03.863Z,101945.34
2022-08-10T17:35:12.392Z,101940.84
2022-08-10T17:40:22.775Z,101946.91
2022-08-10T17:45:47.467Z,101948.50
2022-08-10T17:50:52.440Z,101943.06
2022-08-10T17:55:57.903Z,101949.00
2022-08-10T18:01:38.690Z,101944.44
2022-08-10T18:06:25.691Z,101949.47
2022-08-10T18:11:33.101Z,101949.16
2022-08-10T18:16:41.816Z,101949.81
2022-08-10T18:21:48.800Z,101960.06
2022-08-10T18:26:54.109Z,101964.09
2022-08-10T18:31:59.448Z,101967.28
2022-08-10T18:37:05.092Z,101976.56
2022-08-10T18:42:35.662Z,101973.63
2022-08-10T18:47:58.950Z,101985.53
2022-08-10T18:53:15.260Z,101996.56
2022-08-10T18:58:50.277Z,102001.44
2022-08-10T19:04:29.474Z,102003.75
2022-08-10T19:09:53.246Z,101999.78
2022-08-10T19:15:17.807Z,102006.50
2022-08-10T19:20:31.636Z,102020.13
2022-08-10T19:26:36.500Z,102026.69
2022-08-10T19:31:41.866Z,102030.66
2022-08-10T19:36:49.226Z,102030.28
2022-08-10T19:42:15.816Z,102034.28
2022-08-10T19:47:17.990Z,102045.34
2022-08-10T19:52:47.790Z,102040.47
2022-08-10T19:58:07.587Z,102042.69
2022-08-10T20:03:49.305Z,102037.25
2022-08-10T20:09:10.639Z,102042.97
2022-08-10T20:14:23.066Z,102057.44
2022-08-10T20:19:52.839Z,102050.19
2022-08-10T20:25:14.126Z,102054.22
2022-08-10T20:30:17.220Z,102044.34
2022-08-10T20:35:31.280Z,102053.63
2022-08-10T20:40:59.770Z,102048.81
2022-08-10T20:46:24.993Z,102053.06
2022-08-10T20:51:58.811Z,102051.13
2022-08-10T20:57:55.808Z,102048.78
2022-08-10T21:02:57.877Z,102050.19
2022-08-10T21:08:27.393Z,102055.88
2022-08-10T21:13:56.725Z,102050.00
2022-08-10T21:19:27.006Z,102059.16
2022-08-10T21:24:45.892Z,102050.25
2022-08-10T21:30:09.537Z,102050.56
2022-08-10T21:35:44.498Z,102042.59
2022-08-10T21:41:17.632Z,102043.59
